sensor_id;sensor_type;location;lat;lon;timestamp;P1;durP1;ratioP1;P2;durP2;ratioP2
57225;SDS011;43082;43.568;22.256;2023-07-08T00:01:39;9.20;;;5.25;;
57225;SDS011;43082;43.568;22.256;2023-07-08T00:04:04;11.65;;;4.97;;
57225;SDS011;43082;43.568;22.256;2023-07-08T00:06:30;10.93;;;5.35;;
57225;SDS011;43082;43.568;22.256;2023-07-08T00:08:55;13.15;;;5.60;;
57225;SDS011;43082;43.568;22.256;2023-07-08T00:11:21;9.57;;;5.72;;
57225;SDS011;43082;43.568;22.256;2023-07-08T00:13:47;9.70;;;5.10;;
57225;SDS011;43082;43.568;22.256;2023-07-08T00:16:13;9.52;;;5.30;;
57225;SDS011;43082;43.568;22.256;2023-07-08T00:18:40;13.00;;;5.20;;
57225;SDS011;43082;43.568;22.256;2023-07-08T00:21:13;11.25;;;5.13;;
57225;SDS011;43082;43.568;22.256;2023-07-08T00:23:42;9.40;;;5.07;;
57225;SDS011;43082;43.568;22.256;2023-07-08T00:26:30;12.55;;;5.13;;
57225;SDS011;43082;43.568;22.256;2023-07-08T00:28:56;9.55;;;5.20;;
57225;SDS011;43082;43.568;22.256;2023-07-08T00:31:22;10.75;;;5.03;;
57225;SDS011;43082;43.568;22.256;2023-07-08T00:33:52;8.95;;;4.93;;
57225;SDS011;43082;43.568;22.256;2023-07-08T00:36:22;8.63;;;5.22;;
57225;SDS011;43082;43.568;22.256;2023-07-08T00:38:48;12.07;;;5.43;;
57225;SDS011;43082;43.568;22.256;2023-07-08T00:41:36;9.50;;;4.60;;
57225;SDS011;43082;43.568;22.256;2023-07-08T00:44:03;11.13;;;5.97;;
57225;SDS011;43082;43.568;22.256;2023-07-08T00:51:25;9.80;;;5.25;;
57225;SDS011;43082;43.568;22.256;2023-07-08T00:53:51;10.00;;;5.78;;
57225;SDS011;43082;43.568;22.256;2023-07-08T00:56:28;8.65;;;5.18;;
57225;SDS011;43082;43.568;22.256;2023-07-08T01:01:22;10.10;;;5.53;;
57225;SDS011;43082;43.568;22.256;2023-07-08T01:03:49;10.38;;;5.93;;
57225;SDS011;43082;43.568;22.256;2023-07-08T01:06:18;11.52;;;7.90;;
57225;SDS011;43082;43.568;22.256;2023-07-08T01:08:45;12.95;;;5.05;;
57225;SDS011;43082;43.568;22.256;2023-07-08T01:11:11;9.65;;;5.53;;
57225;SDS011;43082;43.568;22.256;2023-07-08T01:13:40;10.68;;;6.82;;
57225;SDS011;43082;43.568;22.256;2023-07-08T01:16:07;10.43;;;5.93;;
57225;SDS011;43082;43.568;22.256;2023-07-08T01:18:33;8.82;;;4.90;;
57225;SDS011;43082;43.568;22.256;2023-07-08T01:21:05;9.30;;;5.30;;
57225;SDS011;43082;43.568;22.256;2023-07-08T01:23:51;9.70;;;5.53;;
57225;SDS011;43082;43.568;22.256;2023-07-08T01:26:16;11.13;;;5.70;;
57225;SDS011;43082;43.568;22.256;2023-07-08T01:28:42;13.85;;;5.65;;
57225;SDS011;43082;43.568;22.256;2023-07-08T01:31:08;13.40;;;5.88;;
57225;SDS011;43082;43.568;22.256;2023-07-08T01:33:34;9.95;;;4.93;;
57225;SDS011;43082;43.568;22.256;2023-07-08T01:35:59;9.20;;;5.15;;
57225;SDS011;43082;43.568;22.256;2023-07-08T01:38:25;13.30;;;5.43;;
57225;SDS011;43082;43.568;22.256;2023-07-08T01:40:53;11.20;;;5.40;;
57225;SDS011;43082;43.568;22.256;2023-07-08T01:43:20;10.77;;;5.50;;
57225;SDS011;43082;43.568;22.256;2023-07-08T01:45:45;9.07;;;5.50;;
57225;SDS011;43082;43.568;22.256;2023-07-08T01:48:12;8.13;;;4.80;;
57225;SDS011;43082;43.568;22.256;2023-07-08T01:50:42;11.10;;;5.45;;
57225;SDS011;43082;43.568;22.256;2023-07-08T01:53:20;10.93;;;5.50;;
57225;SDS011;43082;43.568;22.256;2023-07-08T01:55:47;8.70;;;5.20;;
57225;SDS011;43082;43.568;22.256;2023-07-08T01:58:13;7.80;;;4.68;;
57225;SDS011;43082;43.568;22.256;2023-07-08T02:00:38;9.45;;;5.05;;
57225;SDS011;43082;43.568;22.256;2023-07-08T02:03:04;10.88;;;5.10;;
57225;SDS011;43082;43.568;22.256;2023-07-08T02:05:29;8.75;;;5.30;;
57225;SDS011;43082;43.568;22.256;2023-07-08T02:07:55;10.85;;;5.47;;
57225;SDS011;43082;43.568;22.256;2023-07-08T02:10:21;13.25;;;5.50;;
57225;SDS011;43082;43.568;22.256;2023-07-08T02:12:47;10.95;;;5.50;;
57225;SDS011;43082;43.568;22.256;2023-07-08T02:15:13;11.63;;;5.38;;
57225;SDS011;43082;43.568;22.256;2023-07-08T02:17:38;14.27;;;5.40;;
57225;SDS011;43082;43.568;22.256;2023-07-08T02:20:04;9.75;;;5.07;;
57225;SDS011;43082;43.568;22.256;2023-07-08T02:22:30;10.05;;;5.10;;
57225;SDS011;43082;43.568;22.256;2023-07-08T02:24:55;12.80;;;5.20;;
57225;SDS011;43082;43.568;22.256;2023-07-08T02:27:21;8.82;;;5.28;;
57225;SDS011;43082;43.568;22.256;2023-07-08T02:29:47;10.38;;;5.35;;
57225;SDS011;43082;43.568;22.256;2023-07-08T02:32:12;9.85;;;5.00;;
57225;SDS011;43082;43.568;22.256;2023-07-08T02:34:38;11.50;;;5.15;;
57225;SDS011;43082;43.568;22.256;2023-07-08T02:37:03;10.82;;;5.28;;
57225;SDS011;43082;43.568;22.256;2023-07-08T02:39:29;12.52;;;5.60;;
57225;SDS011;43082;43.568;22.256;2023-07-08T02:41:55;10.20;;;5.82;;
57225;SDS011;43082;43.568;22.256;2023-07-08T02:44:20;10.85;;;5.38;;
57225;SDS011;43082;43.568;22.256;2023-07-08T02:46:46;12.50;;;5.25;;
57225;SDS011;43082;43.568;22.256;2023-07-08T02:49:11;8.27;;;4.85;;
57225;SDS011;43082;43.568;22.256;2023-07-08T02:51:36;10.98;;;5.80;;
57225;SDS011;43082;43.568;22.256;2023-07-08T02:54:02;12.13;;;5.15;;
57225;SDS011;43082;43.568;22.256;2023-07-08T02:56:27;11.77;;;5.43;;
57225;SDS011;43082;43.568;22.256;2023-07-08T02:58:53;12.93;;;5.82;;
57225;SDS011;43082;43.568;22.256;2023-07-08T03:01:18;8.90;;;5.50;;
57225;SDS011;43082;43.568;22.256;2023-07-08T03:03:44;10.43;;;5.88;;
57225;SDS011;43082;43.568;22.256;2023-07-08T03:06:10;11.18;;;5.63;;
57225;SDS011;43082;43.568;22.256;2023-07-08T03:08:36;9.68;;;5.07;;
57225;SDS011;43082;43.568;22.256;2023-07-08T03:11:03;12.55;;;5.13;;
57225;SDS011;43082;43.568;22.256;2023-07-08T03:13:30;16.95;;;5.68;;
57225;SDS011;43082;43.568;22.256;2023-07-08T03:15:56;10.57;;;5.03;;
57225;SDS011;43082;43.568;22.256;2023-07-08T03:18:25;11.52;;;5.07;;
57225;SDS011;43082;43.568;22.256;2023-07-08T03:20:52;11.48;;;5.13;;
57225;SDS011;43082;43.568;22.256;2023-07-08T03:23:18;16.02;;;5.30;;
57225;SDS011;43082;43.568;22.256;2023-07-08T03:25:44;11.80;;;5.10;;
57225;SDS011;43082;43.568;22.256;2023-07-08T03:28:10;10.20;;;5.32;;
57225;SDS011;43082;43.568;22.256;2023-07-08T03:30:43;12.70;;;5.68;;
57225;SDS011;43082;43.568;22.256;2023-07-08T03:33:10;11.07;;;5.78;;
57225;SDS011;43082;43.568;22.256;2023-07-08T03:35:36;10.25;;;5.45;;
57225;SDS011;43082;43.568;22.256;2023-07-08T03:38:03;9.43;;;4.85;;
57225;SDS011;43082;43.568;22.256;2023-07-08T03:40:29;12.18;;;5.53;;
57225;SDS011;43082;43.568;22.256;2023-07-08T03:42:55;11.70;;;5.50;;
57225;SDS011;43082;43.568;22.256;2023-07-08T03:45:21;10.05;;;4.82;;
57225;SDS011;43082;43.568;22.256;2023-07-08T03:47:46;13.52;;;5.47;;
57225;SDS011;43082;43.568;22.256;2023-07-08T03:50:16;13.18;;;5.25;;
57225;SDS011;43082;43.568;22.256;2023-07-08T03:52:44;13.55;;;5.55;;
57225;SDS011;43082;43.568;22.256;2023-07-08T03:55:11;10.05;;;5.00;;
57225;SDS011;43082;43.568;22.256;2023-07-08T03:57:37;13.93;;;4.90;;
57225;SDS011;43082;43.568;22.256;2023-07-08T04:00:03;10.13;;;4.85;;
57225;SDS011;43082;43.568;22.256;2023-07-08T04:02:29;9.77;;;5.05;;
57225;SDS011;43082;43.568;22.256;2023-07-08T04:04:54;10.02;;;5.03;;
57225;SDS011;43082;43.568;22.256;2023-07-08T04:07:20;12.38;;;4.72;;
57225;SDS011;43082;43.568;22.256;2023-07-08T04:09:45;9.02;;;4.80;;
57225;SDS011;43082;43.568;22.256;2023-07-08T04:12:15;12.90;;;4.97;;
57225;SDS011;43082;43.568;22.256;2023-07-08T04:14:41;8.95;;;5.05;;
57225;SDS011;43082;43.568;22.256;2023-07-08T04:17:08;10.18;;;5.63;;
57225;SDS011;43082;43.568;22.256;2023-07-08T04:19:34;11.45;;;4.80;;
57225;SDS011;43082;43.568;22.256;2023-07-08T04:22:00;10.30;;;5.20;;
57225;SDS011;43082;43.568;22.256;2023-07-08T04:24:27;8.02;;;4.93;;
57225;SDS011;43082;43.568;22.256;2023-07-08T04:26:52;9.50;;;5.22;;
57225;SDS011;43082;43.568;22.256;2023-07-08T04:29:19;14.25;;;4.57;;
57225;SDS011;43082;43.568;22.256;2023-07-08T04:31:45;8.13;;;4.88;;
57225;SDS011;43082;43.568;22.256;2023-07-08T04:34:11;9.77;;;4.90;;
57225;SDS011;43082;43.568;22.256;2023-07-08T04:36:38;9.45;;;4.70;;
57225;SDS011;43082;43.568;22.256;2023-07-08T04:39:04;12.30;;;5.28;;
57225;SDS011;43082;43.568;22.256;2023-07-08T04:41:30;13.93;;;7.28;;
57225;SDS011;43082;43.568;22.256;2023-07-08T04:43:55;13.85;;;7.60;;
57225;SDS011;43082;43.568;22.256;2023-07-08T04:46:27;24.20;;;14.45;;
57225;SDS011;43082;43.568;22.256;2023-07-08T04:48:56;12.80;;;5.78;;
57225;SDS011;43082;43.568;22.256;2023-07-08T04:51:25;15.95;;;8.05;;
57225;SDS011;43082;43.568;22.256;2023-07-08T04:53:50;19.60;;;12.13;;
57225;SDS011;43082;43.568;22.256;2023-07-08T04:56:16;10.80;;;6.85;;
57225;SDS011;43082;43.568;22.256;2023-07-08T04:58:41;10.27;;;5.10;;
57225;SDS011;43082;43.568;22.256;2023-07-08T05:01:07;9.40;;;4.90;;
57225;SDS011;43082;43.568;22.256;2023-07-08T05:03:32;9.18;;;5.03;;
57225;SDS011;43082;43.568;22.256;2023-07-08T05:05:58;13.70;;;5.40;;
57225;SDS011;43082;43.568;22.256;2023-07-08T05:08:23;11.63;;;5.05;;
57225;SDS011;43082;43.568;22.256;2023-07-08T05:10:49;8.10;;;4.70;;
57225;SDS011;43082;43.568;22.256;2023-07-08T05:13:14;10.38;;;5.32;;
57225;SDS011;43082;43.568;22.256;2023-07-08T05:15:39;13.75;;;7.00;;
57225;SDS011;43082;43.568;22.256;2023-07-08T05:18:05;11.82;;;7.00;;
57225;SDS011;43082;43.568;22.256;2023-07-08T05:20:31;11.38;;;6.78;;
57225;SDS011;43082;43.568;22.256;2023-07-08T05:22:58;10.35;;;7.25;;
57225;SDS011;43082;43.568;22.256;2023-07-08T05:25:23;12.15;;;7.25;;
57225;SDS011;43082;43.568;22.256;2023-07-08T05:27:49;13.25;;;7.22;;
57225;SDS011;43082;43.568;22.256;2023-07-08T05:30:16;13.75;;;9.30;;
57225;SDS011;43082;43.568;22.256;2023-07-08T05:32:42;12.63;;;9.38;;
57225;SDS011;43082;43.568;22.256;2023-07-08T05:35:08;12.55;;;9.98;;
57225;SDS011;43082;43.568;22.256;2023-07-08T05:37:34;14.05;;;9.95;;
57225;SDS011;43082;43.568;22.256;2023-07-08T05:39:59;14.25;;;10.90;;
57225;SDS011;43082;43.568;22.256;2023-07-08T05:42:29;16.67;;;11.32;;
57225;SDS011;43082;43.568;22.256;2023-07-08T05:44:55;17.52;;;11.43;;
57225;SDS011;43082;43.568;22.256;2023-07-08T05:47:20;14.88;;;11.15;;
57225;SDS011;43082;43.568;22.256;2023-07-08T05:49:47;15.73;;;11.32;;
57225;SDS011;43082;43.568;22.256;2023-07-08T05:52:12;13.25;;;10.65;;
57225;SDS011;43082;43.568;22.256;2023-07-08T05:54:38;13.13;;;10.88;;
57225;SDS011;43082;43.568;22.256;2023-07-08T05:57:05;14.65;;;9.93;;
57225;SDS011;43082;43.568;22.256;2023-07-08T05:59:31;12.18;;;9.80;;
57225;SDS011;43082;43.568;22.256;2023-07-08T06:01:56;15.55;;;10.63;;
57225;SDS011;43082;43.568;22.256;2023-07-08T06:04:22;15.23;;;9.90;;
57225;SDS011;43082;43.568;22.256;2023-07-08T06:06:47;19.27;;;10.60;;
57225;SDS011;43082;43.568;22.256;2023-07-08T06:09:13;14.02;;;10.18;;
57225;SDS011;43082;43.568;22.256;2023-07-08T06:11:38;14.20;;;9.98;;
57225;SDS011;43082;43.568;22.256;2023-07-08T06:14:04;13.60;;;9.57;;
57225;SDS011;43082;43.568;22.256;2023-07-08T06:16:29;15.88;;;9.88;;
57225;SDS011;43082;43.568;22.256;2023-07-08T06:18:56;12.18;;;9.18;;
57225;SDS011;43082;43.568;22.256;2023-07-08T06:21:22;12.52;;;9.02;;
57225;SDS011;43082;43.568;22.256;2023-07-08T06:23:48;12.88;;;9.25;;
57225;SDS011;43082;43.568;22.256;2023-07-08T06:26:13;11.43;;;8.38;;
57225;SDS011;43082;43.568;22.256;2023-07-08T06:28:39;11.23;;;8.85;;
57225;SDS011;43082;43.568;22.256;2023-07-08T06:31:04;11.60;;;8.05;;
57225;SDS011;43082;43.568;22.256;2023-07-08T06:33:30;13.48;;;8.57;;
57225;SDS011;43082;43.568;22.256;2023-07-08T06:35:55;12.27;;;8.05;;
57225;SDS011;43082;43.568;22.256;2023-07-08T06:38:21;13.40;;;7.80;;
57225;SDS011;43082;43.568;22.256;2023-07-08T06:40:46;11.45;;;7.88;;
57225;SDS011;43082;43.568;22.256;2023-07-08T06:43:11;12.38;;;8.30;;
57225;SDS011;43082;43.568;22.256;2023-07-08T06:45:37;13.25;;;8.02;;
57225;SDS011;43082;43.568;22.256;2023-07-08T06:48:02;12.60;;;7.47;;
57225;SDS011;43082;43.568;22.256;2023-07-08T06:50:28;10.68;;;7.28;;
57225;SDS011;43082;43.568;22.256;2023-07-08T06:52:53;12.45;;;7.68;;
57225;SDS011;43082;43.568;22.256;2023-07-08T06:55:19;10.27;;;7.18;;
57225;SDS011;43082;43.568;22.256;2023-07-08T06:57:44;10.93;;;7.28;;
57225;SDS011;43082;43.568;22.256;2023-07-08T07:00:11;11.48;;;7.00;;
57225;SDS011;43082;43.568;22.256;2023-07-08T07:02:38;10.75;;;7.20;;
57225;SDS011;43082;43.568;22.256;2023-07-08T07:05:04;10.35;;;6.95;;
57225;SDS011;43082;43.568;22.256;2023-07-08T07:07:30;11.10;;;6.72;;
57225;SDS011;43082;43.568;22.256;2023-07-08T07:09:55;9.70;;;6.50;;
57225;SDS011;43082;43.568;22.256;2023-07-08T07:12:21;10.55;;;6.10;;
57225;SDS011;43082;43.568;22.256;2023-07-08T07:14:48;8.55;;;5.82;;
57225;SDS011;43082;43.568;22.256;2023-07-08T07:17:17;12.63;;;5.97;;
57225;SDS011;43082;43.568;22.256;2023-07-08T07:19:43;21.08;;;6.25;;
57225;SDS011;43082;43.568;22.256;2023-07-08T07:22:09;10.15;;;6.22;;
57225;SDS011;43082;43.568;22.256;2023-07-08T07:24:34;13.43;;;5.40;;
57225;SDS011;43082;43.568;22.256;2023-07-08T07:27:00;8.90;;;5.75;;
57225;SDS011;43082;43.568;22.256;2023-07-08T07:29:25;10.48;;;5.97;;
57225;SDS011;43082;43.568;22.256;2023-07-08T07:31:51;12.65;;;5.80;;
57225;SDS011;43082;43.568;22.256;2023-07-08T07:34:16;10.55;;;5.57;;
57225;SDS011;43082;43.568;22.256;2023-07-08T07:36:42;8.85;;;5.30;;
57225;SDS011;43082;43.568;22.256;2023-07-08T07:39:07;9.13;;;4.90;;
57225;SDS011;43082;43.568;22.256;2023-07-08T07:41:33;9.40;;;4.70;;
57225;SDS011;43082;43.568;22.256;2023-07-08T07:43:58;10.75;;;4.95;;
57225;SDS011;43082;43.568;22.256;2023-07-08T07:46:24;7.97;;;4.93;;
57225;SDS011;43082;43.568;22.256;2023-07-08T07:48:49;9.65;;;4.95;;
57225;SDS011;43082;43.568;22.256;2023-07-08T07:51:15;7.68;;;4.65;;
57225;SDS011;43082;43.568;22.256;2023-07-08T07:53:41;9.93;;;5.22;;
57225;SDS011;43082;43.568;22.256;2023-07-08T07:56:06;8.52;;;4.68;;
57225;SDS011;43082;43.568;22.256;2023-07-08T07:58:32;7.22;;;4.32;;
57225;SDS011;43082;43.568;22.256;2023-07-08T08:00:58;9.00;;;4.78;;
57225;SDS011;43082;43.568;22.256;2023-07-08T08:03:23;9.73;;;4.40;;
57225;SDS011;43082;43.568;22.256;2023-07-08T08:05:49;7.72;;;4.28;;
57225;SDS011;43082;43.568;22.256;2023-07-08T08:08:15;8.82;;;4.10;;
57225;SDS011;43082;43.568;22.256;2023-07-08T08:10:44;8.02;;;4.40;;
57225;SDS011;43082;43.568;22.256;2023-07-08T08:13:09;9.57;;;4.30;;
57225;SDS011;43082;43.568;22.256;2023-07-08T08:15:36;6.72;;;3.88;;
57225;SDS011;43082;43.568;22.256;2023-07-08T08:18:02;16.05;;;8.93;;
57225;SDS011;43082;43.568;22.256;2023-07-08T08:20:28;7.63;;;4.20;;
57225;SDS011;43082;43.568;22.256;2023-07-08T08:22:54;10.00;;;4.03;;
57225;SDS011;43082;43.568;22.256;2023-07-08T08:25:20;10.75;;;3.92;;
57225;SDS011;43082;43.568;22.256;2023-07-08T08:27:48;9.70;;;4.20;;
57225;SDS011;43082;43.568;22.256;2023-07-08T08:30:14;6.22;;;3.40;;
57225;SDS011;43082;43.568;22.256;2023-07-08T08:32:39;9.10;;;4.05;;
57225;SDS011;43082;43.568;22.256;2023-07-08T08:35:05;8.23;;;3.53;;
57225;SDS011;43082;43.568;22.256;2023-07-08T08:37:31;9.45;;;3.67;;
57225;SDS011;43082;43.568;22.256;2023-07-08T08:39:56;7.70;;;3.58;;
57225;SDS011;43082;43.568;22.256;2023-07-08T08:44:56;9.23;;;3.83;;
57225;SDS011;43082;43.568;22.256;2023-07-08T08:53:08;8.77;;;3.40;;
57225;SDS011;43082;43.568;22.256;2023-07-08T08:55:36;7.80;;;3.28;;
57225;SDS011;43082;43.568;22.256;2023-07-08T09:03:12;6.55;;;3.35;;
57225;SDS011;43082;43.568;22.256;2023-07-08T09:05:43;7.28;;;3.28;;
57225;SDS011;43082;43.568;22.256;2023-07-08T09:13:32;7.43;;;3.50;;
57225;SDS011;43082;43.568;22.256;2023-07-08T09:16:07;6.90;;;3.10;;
57225;SDS011;43082;43.568;22.256;2023-07-08T09:22:14;7.20;;;3.65;;
57225;SDS011;43082;43.568;22.256;2023-07-08T09:26:58;10.13;;;3.47;;
57225;SDS011;43082;43.568;22.256;2023-07-08T09:29:26;9.63;;;3.85;;
57225;SDS011;43082;43.568;22.256;2023-07-08T09:31:51;8.48;;;3.50;;
57225;SDS011;43082;43.568;22.256;2023-07-08T09:34:23;7.55;;;3.13;;
57225;SDS011;43082;43.568;22.256;2023-07-08T09:37:03;8.80;;;3.30;;
57225;SDS011;43082;43.568;22.256;2023-07-08T09:39:29;6.72;;;2.80;;
57225;SDS011;43082;43.568;22.256;2023-07-08T09:41:55;6.07;;;3.00;;
57225;SDS011;43082;43.568;22.256;2023-07-08T09:46:55;9.63;;;2.90;;
57225;SDS011;43082;43.568;22.256;2023-07-08T09:51:57;12.63;;;3.40;;
57225;SDS011;43082;43.568;22.256;2023-07-08T09:54:23;8.68;;;2.90;;
57225;SDS011;43082;43.568;22.256;2023-07-08T09:57:00;9.65;;;3.20;;
57225;SDS011;43082;43.568;22.256;2023-07-08T09:59:32;8.27;;;3.28;;
57225;SDS011;43082;43.568;22.256;2023-07-08T10:02:16;10.25;;;3.08;;
57225;SDS011;43082;43.568;22.256;2023-07-08T10:05:25;10.02;;;3.20;;
57225;SDS011;43082;43.568;22.256;2023-07-08T10:07:55;7.30;;;3.10;;
57225;SDS011;43082;43.568;22.256;2023-07-08T10:10:28;10.93;;;3.72;;
57225;SDS011;43082;43.568;22.256;2023-07-08T10:15:44;9.15;;;3.30;;
57225;SDS011;43082;43.568;22.256;2023-07-08T10:18:16;11.27;;;3.05;;
57225;SDS011;43082;43.568;22.256;2023-07-08T10:23:42;7.40;;;3.22;;
57225;SDS011;43082;43.568;22.256;2023-07-08T10:28:51;7.45;;;3.38;;
57225;SDS011;43082;43.568;22.256;2023-07-08T10:31:41;6.53;;;3.08;;
57225;SDS011;43082;43.568;22.256;2023-07-08T10:34:28;6.30;;;3.20;;
57225;SDS011;43082;43.568;22.256;2023-07-08T10:39:59;7.93;;;3.42;;
57225;SDS011;43082;43.568;22.256;2023-07-08T10:45:23;7.13;;;3.40;;
57225;SDS011;43082;43.568;22.256;2023-07-08T10:56:37;6.67;;;3.20;;
57225;SDS011;43082;43.568;22.256;2023-07-08T10:59:19;9.02;;;3.30;;
57225;SDS011;43082;43.568;22.256;2023-07-08T11:07:41;9.93;;;3.40;;
57225;SDS011;43082;43.568;22.256;2023-07-08T11:10:12;11.27;;;3.33;;
57225;SDS011;43082;43.568;22.256;2023-07-08T11:15:18;9.52;;;3.30;;
57225;SDS011;43082;43.568;22.256;2023-07-08T11:17:57;5.77;;;3.10;;
57225;SDS011;43082;43.568;22.256;2023-07-08T11:20:31;8.32;;;3.08;;
57225;SDS011;43082;43.568;22.256;2023-07-08T11:23:04;6.28;;;2.85;;
57225;SDS011;43082;43.568;22.256;2023-07-08T11:25:34;8.07;;;3.50;;
57225;SDS011;43082;43.568;22.256;2023-07-08T11:28:01;7.40;;;3.13;;
57225;SDS011;43082;43.568;22.256;2023-07-08T11:30:30;6.20;;;2.83;;
57225;SDS011;43082;43.568;22.256;2023-07-08T11:32:58;9.50;;;3.33;;
57225;SDS011;43082;43.568;22.256;2023-07-08T11:38:12;5.75;;;2.92;;
57225;SDS011;43082;43.568;22.256;2023-07-08T11:40:56;6.78;;;3.58;;
57225;SDS011;43082;43.568;22.256;2023-07-08T11:43:27;6.93;;;3.25;;
57225;SDS011;43082;43.568;22.256;2023-07-08T11:46:05;8.65;;;2.97;;
57225;SDS011;43082;43.568;22.256;2023-07-08T11:48:39;8.38;;;3.33;;
57225;SDS011;43082;43.568;22.256;2023-07-08T11:51:09;6.05;;;3.08;;
57225;SDS011;43082;43.568;22.256;2023-07-08T11:53:36;7.13;;;3.22;;
57225;SDS011;43082;43.568;22.256;2023-07-08T12:03:38;9.35;;;3.38;;
57225;SDS011;43082;43.568;22.256;2023-07-08T12:09:13;7.82;;;3.40;;
57225;SDS011;43082;43.568;22.256;2023-07-08T12:11:50;8.25;;;3.08;;
57225;SDS011;43082;43.568;22.256;2023-07-08T12:14:19;8.18;;;3.10;;
57225;SDS011;43082;43.568;22.256;2023-07-08T12:16:44;9.43;;;2.90;;
57225;SDS011;43082;43.568;22.256;2023-07-08T12:19:11;7.63;;;3.08;;
57225;SDS011;43082;43.568;22.256;2023-07-08T12:21:40;7.38;;;3.10;;
57225;SDS011;43082;43.568;22.256;2023-07-08T12:24:06;7.70;;;2.95;;
57225;SDS011;43082;43.568;22.256;2023-07-08T12:26:33;8.98;;;3.30;;
57225;SDS011;43082;43.568;22.256;2023-07-08T12:28:59;6.93;;;3.47;;
57225;SDS011;43082;43.568;22.256;2023-07-08T12:31:24;9.00;;;3.05;;
57225;SDS011;43082;43.568;22.256;2023-07-08T12:33:50;7.88;;;2.90;;
57225;SDS011;43082;43.568;22.256;2023-07-08T12:36:23;6.50;;;3.20;;
57225;SDS011;43082;43.568;22.256;2023-07-08T12:38:51;6.82;;;3.13;;
57225;SDS011;43082;43.568;22.256;2023-07-08T12:41:18;6.40;;;2.78;;
57225;SDS011;43082;43.568;22.256;2023-07-08T12:43:49;8.02;;;3.58;;
57225;SDS011;43082;43.568;22.256;2023-07-08T12:46:16;5.97;;;2.92;;
57225;SDS011;43082;43.568;22.256;2023-07-08T12:48:43;9.30;;;3.20;;
57225;SDS011;43082;43.568;22.256;2023-07-08T12:51:12;8.27;;;3.00;;
57225;SDS011;43082;43.568;22.256;2023-07-08T12:53:40;6.53;;;2.70;;
57225;SDS011;43082;43.568;22.256;2023-07-08T12:56:07;6.95;;;2.95;;
57225;SDS011;43082;43.568;22.256;2023-07-08T12:58:34;11.00;;;3.42;;
57225;SDS011;43082;43.568;22.256;2023-07-08T13:01:03;8.30;;;2.78;;
57225;SDS011;43082;43.568;22.256;2023-07-08T13:03:30;8.90;;;3.17;;
57225;SDS011;43082;43.568;22.256;2023-07-08T13:05:57;8.65;;;2.63;;
57225;SDS011;43082;43.568;22.256;2023-07-08T13:08:24;8.20;;;2.70;;
57225;SDS011;43082;43.568;22.256;2023-07-08T13:10:52;8.52;;;3.10;;
57225;SDS011;43082;43.568;22.256;2023-07-08T13:13:21;8.23;;;2.75;;
57225;SDS011;43082;43.568;22.256;2023-07-08T13:15:47;6.47;;;3.05;;
57225;SDS011;43082;43.568;22.256;2023-07-08T13:18:21;6.53;;;2.80;;
57225;SDS011;43082;43.568;22.256;2023-07-08T13:20:51;6.55;;;2.60;;
57225;SDS011;43082;43.568;22.256;2023-07-08T13:23:17;8.38;;;3.03;;
57225;SDS011;43082;43.568;22.256;2023-07-08T13:25:44;5.97;;;2.63;;
57225;SDS011;43082;43.568;22.256;2023-07-08T13:28:16;5.95;;;2.63;;
57225;SDS011;43082;43.568;22.256;2023-07-08T13:30:52;8.00;;;2.60;;
57225;SDS011;43082;43.568;22.256;2023-07-08T13:33:19;6.18;;;2.78;;
57225;SDS011;43082;43.568;22.256;2023-07-08T13:35:45;6.72;;;2.50;;
57225;SDS011;43082;43.568;22.256;2023-07-08T13:38:20;9.20;;;2.60;;
57225;SDS011;43082;43.568;22.256;2023-07-08T13:40:48;9.05;;;2.70;;
57225;SDS011;43082;43.568;22.256;2023-07-08T13:43:22;6.95;;;2.58;;
57225;SDS011;43082;43.568;22.256;2023-07-08T13:45:51;5.87;;;2.53;;
57225;SDS011;43082;43.568;22.256;2023-07-08T13:53:42;5.20;;;2.55;;
57225;SDS011;43082;43.568;22.256;2023-07-08T13:56:11;7.50;;;2.60;;
57225;SDS011;43082;43.568;22.256;2023-07-08T13:58:45;8.85;;;2.72;;
57225;SDS011;43082;43.568;22.256;2023-07-08T14:01:18;7.70;;;2.60;;
57225;SDS011;43082;43.568;22.256;2023-07-08T14:03:49;5.75;;;2.65;;
57225;SDS011;43082;43.568;22.256;2023-07-08T14:06:20;6.60;;;2.95;;
57225;SDS011;43082;43.568;22.256;2023-07-08T14:08:47;9.25;;;2.95;;
57225;SDS011;43082;43.568;22.256;2023-07-08T14:11:13;6.88;;;2.67;;
57225;SDS011;43082;43.568;22.256;2023-07-08T14:13:39;6.18;;;2.80;;
57225;SDS011;43082;43.568;22.256;2023-07-08T14:16:08;6.35;;;2.60;;
57225;SDS011;43082;43.568;22.256;2023-07-08T14:18:42;5.75;;;2.47;;
57225;SDS011;43082;43.568;22.256;2023-07-08T14:21:07;5.25;;;2.45;;
57225;SDS011;43082;43.568;22.256;2023-07-08T14:23:34;7.28;;;2.90;;
57225;SDS011;43082;43.568;22.256;2023-07-08T14:25:59;5.53;;;2.33;;
57225;SDS011;43082;43.568;22.256;2023-07-08T14:28:25;7.22;;;2.85;;
57225;SDS011;43082;43.568;22.256;2023-07-08T14:30:50;6.85;;;2.47;;
57225;SDS011;43082;43.568;22.256;2023-07-08T14:33:16;7.93;;;2.78;;
57225;SDS011;43082;43.568;22.256;2023-07-08T14:35:42;5.55;;;2.30;;
57225;SDS011;43082;43.568;22.256;2023-07-08T14:38:11;8.30;;;2.60;;
57225;SDS011;43082;43.568;22.256;2023-07-08T14:40:40;7.80;;;2.67;;
57225;SDS011;43082;43.568;22.256;2023-07-08T14:43:09;6.80;;;2.42;;
57225;SDS011;43082;43.568;22.256;2023-07-08T14:45:41;6.55;;;2.58;;
57225;SDS011;43082;43.568;22.256;2023-07-08T14:48:10;5.45;;;2.50;;
57225;SDS011;43082;43.568;22.256;2023-07-08T14:50:36;6.25;;;2.67;;
57225;SDS011;43082;43.568;22.256;2023-07-08T14:53:02;8.98;;;2.90;;
57225;SDS011;43082;43.568;22.256;2023-07-08T14:55:27;7.82;;;2.60;;
57225;SDS011;43082;43.568;22.256;2023-07-08T14:57:53;6.72;;;2.67;;
57225;SDS011;43082;43.568;22.256;2023-07-08T15:00:20;7.63;;;2.60;;
57225;SDS011;43082;43.568;22.256;2023-07-08T15:02:47;5.43;;;2.40;;
57225;SDS011;43082;43.568;22.256;2023-07-08T15:05:14;7.05;;;2.67;;
57225;SDS011;43082;43.568;22.256;2023-07-08T15:07:44;7.43;;;2.53;;
57225;SDS011;43082;43.568;22.256;2023-07-08T15:10:13;8.93;;;2.50;;
57225;SDS011;43082;43.568;22.256;2023-07-08T15:12:39;5.90;;;2.65;;
57225;SDS011;43082;43.568;22.256;2023-07-08T15:15:04;6.15;;;2.85;;
57225;SDS011;43082;43.568;22.256;2023-07-08T15:17:30;5.15;;;2.47;;
57225;SDS011;43082;43.568;22.256;2023-07-08T15:19:56;6.72;;;2.50;;
57225;SDS011;43082;43.568;22.256;2023-07-08T15:22:22;6.70;;;2.50;;
57225;SDS011;43082;43.568;22.256;2023-07-08T15:24:47;5.80;;;2.40;;
57225;SDS011;43082;43.568;22.256;2023-07-08T15:27:13;8.32;;;2.65;;
57225;SDS011;43082;43.568;22.256;2023-07-08T15:29:38;6.35;;;2.70;;
57225;SDS011;43082;43.568;22.256;2023-07-08T15:32:08;9.50;;;3.05;;
57225;SDS011;43082;43.568;22.256;2023-07-08T15:37:04;6.85;;;2.83;;
57225;SDS011;43082;43.568;22.256;2023-07-08T15:39:29;7.60;;;3.03;;
57225;SDS011;43082;43.568;22.256;2023-07-08T15:41:55;6.35;;;2.95;;
57225;SDS011;43082;43.568;22.256;2023-07-08T15:44:21;6.50;;;2.60;;
57225;SDS011;43082;43.568;22.256;2023-07-08T15:46:47;7.47;;;2.50;;
57225;SDS011;43082;43.568;22.256;2023-07-08T15:49:17;8.57;;;2.75;;
57225;SDS011;43082;43.568;22.256;2023-07-08T15:51:44;8.80;;;2.50;;
57225;SDS011;43082;43.568;22.256;2023-07-08T15:54:10;6.93;;;2.55;;
57225;SDS011;43082;43.568;22.256;2023-07-08T15:56:36;6.00;;;2.63;;
57225;SDS011;43082;43.568;22.256;2023-07-08T15:59:02;6.63;;;2.67;;
57225;SDS011;43082;43.568;22.256;2023-07-08T16:01:28;7.07;;;2.60;;